Station: EBLB - 24/04/2019 08:25Z (il y a 32 minutes)
EBLB 240825Z 19010KT 9999 FEW033 16/07 Q1001 BLU BLU
Vent du 190º - 10 kt
Visibilité > 10 km
Nuages épars à 3300 pieds
Température: +16ºC - Point de rosée: +07ºC - QNH: 1001 hPa
Code couleur militaire: BLU (conditions VMC)
Code couleur militaire: BLU (conditions VMC)